createdAt,value
2022-07-29T00:00:16.821Z,65.80
2022-07-29T00:03:24.293Z,65.80
2022-07-29T00:06:32.607Z,65.67
2022-07-29T00:09:51.199Z,65.56
2022-07-29T00:12:45.200Z,65.56
2022-07-29T00:15:53.624Z,65.87
2022-07-29T00:19:02.445Z,65.47
2022-07-29T00:22:10.489Z,65.47
2022-07-29T00:25:18.774Z,67.22
2022-07-29T00:28:21.982Z,67.22
2022-07-29T00:31:30.180Z,67.62
2022-07-29T00:34:38.500Z,66.41
2022-07-29T00:37:45.888Z,65.90
2022-07-29T00:40:53.998Z,65.80
2022-07-29T00:44:01.911Z,66.24
2022-07-29T00:47:09.827Z,66.24
2022-07-29T00:50:17.874Z,65.93
2022-07-29T00:53:25.884Z,65.62
2022-07-29T00:56:34.482Z,65.83
2022-07-29T00:59:42.423Z,65.42
2022-07-29T01:02:50.304Z,65.39
2022-07-29T01:05:58.505Z,66.00
2022-07-29T01:09:06.005Z,65.19
2022-07-29T01:12:14.397Z,65.80
2022-07-29T01:15:22.349Z,65.50
2022-07-29T01:18:29.798Z,65.90
2022-07-29T01:21:38.919Z,65.80
2022-07-29T01:24:39.019Z,65.90
2022-07-29T01:27:47.365Z,65.70
2022-07-29T01:30:55.750Z,65.59
2022-07-29T01:34:04.848Z,65.19
2022-07-29T01:37:13.122Z,65.09
2022-07-29T01:40:20.869Z,64.79
2022-07-29T01:43:28.693Z,64.89
2022-07-29T01:46:36.921Z,65.09
2022-07-29T01:49:44.797Z,65.39
2022-07-29T01:52:52.715Z,65.59
2022-07-29T01:56:00.530Z,65.59
2022-07-29T01:59:08.397Z,65.19
2022-07-29T02:02:13.061Z,65.56
2022-07-29T02:05:20.916Z,65.47
2022-07-29T02:08:29.359Z,65.90
2022-07-29T02:11:37.275Z,66.00
2022-07-29T02:14:44.776Z,66.61
2022-07-29T02:17:52.975Z,66.91
2022-07-29T02:21:00.433Z,67.42
2022-07-29T02:24:08.015Z,66.74
2022-07-29T02:27:16.436Z,66.64
2022-07-29T02:30:23.955Z,66.77
2022-07-29T02:33:32.100Z,67.18
2022-07-29T02:36:40.040Z,66.97
2022-07-29T02:39:48.219Z,67.08
2022-07-29T02:42:55.914Z,67.38
2022-07-29T02:46:03.785Z,67.61
2022-07-29T02:49:11.773Z,66.67
2022-07-29T02:52:19.673Z,66.16
2022-07-29T02:55:27.574Z,65.76
2022-07-29T02:58:35.310Z,65.76
2022-07-29T03:01:43.268Z,65.42
2022-07-29T03:04:51.509Z,65.22
2022-07-29T03:07:59.255Z,65.53
2022-07-29T03:11:07.029Z,65.22
2022-07-29T03:14:15.465Z,64.72
2022-07-29T03:17:23.241Z,65.42
2022-07-29T03:20:31.348Z,65.29
2022-07-29T03:23:39.557Z,65.83
2022-07-29T03:26:46.933Z,65.93
2022-07-29T03:29:55.125Z,65.73
2022-07-29T03:33:04.735Z,66.27
2022-07-29T03:36:09.214Z,67.38
2022-07-29T03:39:17.528Z,67.38
2022-07-29T03:42:27.296Z,67.38
2022-07-29T03:45:26.539Z,66.16
2022-07-29T03:48:34.829Z,66.16
2022-07-29T03:51:42.259Z,66.06
2022-07-29T03:54:50.390Z,66.47
2022-07-29T03:57:58.611Z,65.86
2022-07-29T04:01:05.942Z,65.86
2022-07-29T04:04:14.334Z,65.83
2022-07-29T04:07:22.202Z,65.83
2022-07-29T04:10:31.686Z,66.33
2022-07-29T04:13:40.466Z,66.57
2022-07-29T04:16:48.627Z,66.77
2022-07-29T04:19:56.803Z,66.97
2022-07-29T04:23:05.299Z,67.28
2022-07-29T04:26:13.280Z,67.38
2022-07-29T04:29:21.421Z,67.79
2022-07-29T04:32:29.730Z,67.38
2022-07-29T04:35:45.828Z,67.55
2022-07-29T04:38:43.397Z,67.14
2022-07-29T04:41:51.281Z,67.25
2022-07-29T04:45:01.272Z,66.81
2022-07-29T04:48:09.505Z,67.49
2022-07-29T04:51:17.443Z,65.84
2022-07-29T04:54:26.038Z,65.43
2022-07-29T04:57:34.556Z,65.91
2022-07-29T05:00:42.659Z,65.91
2022-07-29T05:03:51.088Z,65.70
2022-07-29T05:06:59.100Z,65.91
2022-07-29T05:10:07.051Z,66.28
2022-07-29T05:13:15.586Z,67.09
2022-07-29T05:16:23.193Z,66.28
2022-07-29T05:19:31.422Z,65.34
2022-07-29T05:22:39.614Z,63.90
2022-07-29T05:25:46.925Z,64.20
2022-07-29T05:28:54.947Z,63.46
2022-07-29T05:32:03.174Z,62.73
2022-07-29T05:35:10.558Z,62.02
2022-07-29T05:38:18.849Z,62.52
2022-07-29T05:41:26.488Z,63.03
2022-07-29T05:44:34.200Z,63.13
2022-07-29T05:47:42.172Z,63.13
2022-07-29T05:50:49.914Z,63.23
2022-07-29T05:53:57.736Z,63.20
2022-07-29T05:57:05.502Z,62.57
2022-07-29T06:00:13.667Z,61.56
2022-07-29T06:03:21.408Z,61.83
2022-07-29T06:06:29.318Z,62.01
2022-07-29T06:09:37.241Z,61.50
2022-07-29T06:12:44.970Z,60.77
2022-07-29T06:15:52.857Z,60.89
2022-07-29T06:19:00.941Z,60.89
2022-07-29T06:22:08.651Z,61.50
2022-07-29T06:25:16.255Z,61.70
2022-07-29T06:28:24.160Z,62.41
2022-07-29T06:31:31.453Z,61.30
2022-07-29T06:34:39.687Z,60.87
2022-07-29T06:37:50.168Z,60.47
2022-07-29T06:40:51.789Z,61.07
2022-07-29T06:44:00.060Z,60.97
2022-07-29T06:47:08.213Z,60.77
2022-07-29T06:50:15.453Z,61.37
2022-07-29T06:53:23.362Z,60.87
2022-07-29T06:56:31.014Z,60.77
2022-07-29T06:59:38.665Z,61.07
2022-07-29T07:02:46.780Z,61.04
2022-07-29T07:05:55.028Z,60.31
2022-07-29T07:09:02.600Z,61.11
2022-07-29T07:12:10.949Z,61.04
2022-07-29T07:15:18.801Z,60.18
2022-07-29T07:18:26.591Z,59.47
2022-07-29T07:21:34.297Z,59.65
2022-07-29T07:24:44.243Z,58.31
2022-07-29T07:27:52.031Z,58.11
2022-07-29T07:30:59.765Z,58.72
2022-07-29T07:34:07.655Z,58.11
2022-07-29T07:37:15.370Z,58.29
2022-07-29T07:40:23.224Z,56.85
2022-07-29T07:43:31.318Z,55.43
2022-07-29T07:46:39.022Z,55.50
2022-07-29T07:49:47.143Z,53.64
2022-07-29T07:52:55.364Z,50.57
2022-07-29T07:56:11.879Z,49.10
2022-07-29T07:59:08.218Z,50.40
2022-07-29T08:02:18.047Z,50.49
2022-07-29T08:05:25.362Z,50.90
2022-07-29T08:08:33.432Z,49.70
2022-07-29T08:11:41.279Z,49.77
2022-07-29T08:14:46.022Z,47.93
2022-07-29T08:17:54.249Z,47.81
2022-07-29T08:21:02.103Z,48.23
2022-07-29T08:24:09.495Z,49.43
2022-07-29T08:27:41.114Z,49.83
2022-07-29T08:30:22.817Z,49.51
2022-07-29T08:33:31.198Z,50.23
2022-07-29T08:36:39.411Z,51.17
2022-07-29T08:39:47.180Z,51.17
2022-07-29T08:42:54.942Z,51.65
2022-07-29T08:46:02.777Z,50.55
2022-07-29T08:49:10.631Z,50.65
2022-07-29T08:52:18.416Z,49.63
2022-07-29T08:55:26.078Z,49.30
2022-07-29T08:58:38.202Z,47.96
2022-07-29T09:01:36.794Z,48.80
2022-07-29T09:04:39.431Z,49.40
2022-07-29T09:07:47.666Z,48.38
2022-07-29T09:10:55.035Z,48.38
2022-07-29T09:14:03.196Z,47.25
2022-07-29T09:17:11.382Z,46.60
2022-07-29T09:20:18.877Z,46.13
2022-07-29T09:23:27.082Z,47.13
2022-07-29T09:26:34.946Z,47.62
2022-07-29T09:29:42.741Z,48.04
2022-07-29T09:32:51.109Z,47.54
2022-07-29T09:35:59.725Z,47.72
2022-07-29T09:39:09.756Z,47.13
2022-07-29T09:42:17.903Z,47.57
2022-07-29T09:45:26.917Z,46.80
2022-07-29T09:48:34.580Z,47.70
2022-07-29T09:51:42.262Z,47.08
2022-07-29T09:54:50.462Z,47.05
2022-07-29T09:57:58.523Z,46.56
2022-07-29T10:01:06.214Z,46.26
2022-07-29T10:04:14.362Z,46.66
2022-07-29T10:07:21.825Z,46.22
2022-07-29T10:10:30.099Z,45.82
2022-07-29T10:13:38.139Z,45.70
2022-07-29T10:16:45.493Z,44.17
2022-07-29T10:19:53.751Z,44.56
2022-07-29T10:23:01.528Z,44.78
2022-07-29T10:26:09.438Z,45.30
2022-07-29T10:29:17.416Z,44.89
2022-07-29T10:32:24.735Z,44.76
2022-07-29T10:35:33.113Z,44.67
2022-07-29T10:38:45.733Z,44.24
2022-07-29T10:41:44.386Z,41.87
2022-07-29T10:44:52.773Z,41.08
2022-07-29T10:48:01.295Z,39.99
2022-07-29T10:51:08.946Z,39.08
2022-07-29T10:54:08.907Z,38.37
2022-07-29T10:57:16.946Z,38.65
2022-07-29T11:00:24.789Z,37.76
2022-07-29T11:03:32.528Z,38.45
2022-07-29T11:06:42.853Z,38.27
2022-07-29T11:09:50.717Z,39.18
2022-07-29T11:12:58.764Z,39.58
2022-07-29T11:16:07.033Z,39.37
2022-07-29T11:19:16.107Z,39.59
2022-07-29T11:22:21.105Z,39.79
2022-07-29T11:25:50.099Z,39.77
2022-07-29T11:28:27.640Z,40.05
2022-07-29T11:31:36.363Z,39.93
2022-07-29T11:34:44.272Z,39.56
2022-07-29T11:40:57.456Z,39.16
2022-07-29T11:44:06.937Z,38.07
2022-07-29T11:47:16.949Z,36.18
2022-07-29T11:50:27.111Z,36.18
2022-07-29T11:53:36.022Z,35.38
2022-07-29T11:56:43.734Z,35.89
2022-07-29T11:59:51.784Z,35.50
2022-07-29T12:06:04.804Z,35.21
2022-07-29T12:07:03.897Z,38.55
2022-07-29T12:09:15.107Z,35.80
2022-07-29T12:12:24.560Z,34.79
2022-07-29T12:15:45.836Z,34.79
2022-07-29T12:18:37.540Z,34.89
2022-07-29T12:21:49.407Z,35.19
2022-07-29T12:24:50.866Z,35.60
2022-07-29T12:27:52.976Z,35.72
2022-07-29T12:31:01.209Z,36.71
2022-07-29T12:34:09.876Z,35.52
2022-07-29T12:37:17.309Z,35.61
2022-07-29T12:40:25.470Z,35.21
2022-07-29T12:43:33.183Z,35.70
2022-07-29T12:46:41.723Z,36.19
2022-07-29T12:49:49.962Z,36.18
2022-07-29T12:52:57.547Z,35.86
2022-07-29T12:56:20.780Z,36.06
2022-07-29T12:59:11.643Z,34.97
2022-07-29T13:02:19.726Z,35.25
2022-07-29T13:05:27.654Z,35.25
2022-07-29T13:08:35.733Z,35.05
2022-07-29T13:11:48.166Z,34.56
2022-07-29T13:14:46.453Z,34.56
2022-07-29T13:17:54.524Z,34.95
2022-07-29T13:21:02.470Z,34.76
2022-07-29T13:24:10.160Z,34.36
2022-07-29T13:27:18.211Z,34.64
2022-07-29T13:30:26.394Z,34.86
2022-07-29T13:33:34.586Z,34.46
2022-07-29T13:36:43.078Z,34.56
2022-07-29T13:39:53.082Z,34.64
2022-07-29T13:43:00.739Z,34.55
2022-07-29T13:46:08.823Z,34.44
2022-07-29T13:49:16.571Z,34.15
2022-07-29T13:52:24.424Z,33.64
2022-07-29T13:55:32.443Z,33.94
2022-07-29T13:58:39.887Z,33.84
2022-07-29T14:01:48.197Z,34.23
2022-07-29T14:04:56.391Z,33.94
2022-07-29T14:08:03.809Z,34.36
2022-07-29T14:11:11.948Z,35.96
2022-07-29T14:14:19.692Z,34.36
2022-07-29T14:17:27.433Z,33.75
2022-07-29T14:20:35.627Z,33.84
2022-07-29T14:23:43.304Z,34.43
2022-07-29T14:26:51.962Z,34.05
2022-07-29T14:30:00.131Z,35.04
2022-07-29T14:33:07.821Z,34.13
2022-07-29T14:36:15.650Z,33.25
2022-07-29T14:39:23.573Z,34.33
2022-07-29T14:42:31.356Z,34.53
2022-07-29T14:45:39.184Z,34.64
2022-07-29T14:48:46.761Z,35.24
2022-07-29T14:51:55.095Z,35.15
2022-07-29T14:55:03.160Z,35.96
2022-07-29T14:58:16.005Z,35.47
2022-07-29T15:01:13.474Z,36.06
2022-07-29T15:04:21.233Z,35.76
2022-07-29T15:07:28.954Z,36.57
2022-07-29T15:10:36.555Z,36.67
2022-07-29T15:13:43.968Z,36.59
2022-07-29T15:16:52.644Z,36.69
2022-07-29T15:20:00.837Z,37.58
2022-07-29T15:23:08.691Z,37.58
2022-07-29T15:26:18.115Z,37.38
2022-07-29T15:29:26.041Z,37.70
2022-07-29T15:32:33.865Z,39.28
2022-07-29T15:35:41.758Z,39.50
2022-07-29T15:38:49.178Z,38.60
2022-07-29T15:41:57.354Z,38.80
2022-07-29T15:45:05.582Z,38.92
2022-07-29T15:48:14.841Z,38.62
2022-07-29T15:51:23.103Z,39.02
2022-07-29T15:54:31.286Z,38.82
2022-07-29T15:57:38.723Z,39.31
2022-07-29T16:00:46.889Z,39.22
2022-07-29T16:03:54.716Z,39.31
2022-07-29T16:07:02.362Z,39.81
2022-07-29T16:10:10.491Z,40.01
2022-07-29T16:13:18.939Z,40.11
2022-07-29T16:16:28.087Z,39.59
2022-07-29T16:19:35.734Z,40.09
2022-07-29T16:22:43.655Z,40.09
2022-07-29T16:25:59.782Z,39.40
2022-07-29T16:28:56.060Z,39.69
2022-07-29T16:32:04.196Z,39.79
2022-07-29T16:35:11.799Z,39.79
2022-07-29T16:38:19.131Z,40.48
2022-07-29T16:41:27.175Z,40.39
2022-07-29T16:44:34.870Z,39.89
2022-07-29T16:47:44.174Z,40.20
2022-07-29T16:50:52.817Z,40.41
2022-07-29T16:54:00.087Z,40.90
2022-07-29T16:57:07.753Z,40.92
2022-07-29T17:00:15.591Z,41.91
2022-07-29T17:03:22.968Z,41.61
2022-07-29T17:06:30.685Z,42.03
2022-07-29T17:09:38.726Z,42.13
2022-07-29T17:12:46.257Z,43.44
2022-07-29T17:15:57.615Z,44.33
2022-07-29T17:18:56.951Z,44.35
2022-07-29T17:22:12.665Z,46.93
2022-07-29T17:25:10.273Z,47.95
2022-07-29T17:28:17.613Z,48.35
2022-07-29T17:31:25.430Z,48.77
2022-07-29T17:34:33.527Z,49.46
2022-07-29T17:37:40.827Z,48.77
2022-07-29T17:40:49.332Z,49.68
2022-07-29T17:43:56.880Z,50.48
2022-07-29T17:47:04.780Z,49.78
2022-07-29T17:50:12.842Z,49.88
2022-07-29T17:53:20.574Z,50.78
2022-07-29T17:56:28.346Z,50.68
2022-07-29T17:59:36.355Z,51.00
2022-07-29T18:02:44.043Z,52.32
2022-07-29T18:05:51.339Z,52.81
2022-07-29T18:08:59.110Z,53.94
2022-07-29T18:12:07.432Z,53.46
2022-07-29T18:15:15.107Z,54.28
2022-07-29T18:18:23.233Z,54.38
2022-07-29T18:21:45.688Z,55.01
2022-07-29T18:24:36.576Z,56.03
2022-07-29T18:27:43.858Z,56.63
2022-07-29T18:30:51.893Z,56.33
2022-07-29T18:34:00.169Z,57.35
2022-07-29T18:37:08.281Z,56.48
2022-07-29T18:40:16.432Z,56.29
2022-07-29T18:43:23.801Z,57.28
2022-07-29T18:46:32.012Z,57.31
2022-07-29T18:49:41.075Z,57.51
2022-07-29T18:52:48.388Z,57.21
2022-07-29T18:56:00.189Z,57.34
2022-07-29T18:58:57.799Z,58.04
2022-07-29T19:02:05.218Z,58.04
2022-07-29T19:05:13.379Z,58.54
2022-07-29T19:08:20.812Z,59.27
2022-07-29T19:11:28.411Z,59.66
2022-07-29T19:14:35.975Z,58.56
2022-07-29T19:17:43.695Z,59.97
2022-07-29T19:20:51.684Z,60.29
2022-07-29T19:24:06.287Z,60.29
2022-07-29T19:27:04.001Z,61.09
2022-07-29T19:30:11.599Z,60.89
2022-07-29T19:33:19.278Z,61.12
2022-07-29T19:36:27.013Z,60.72
2022-07-29T19:39:35.725Z,60.82
2022-07-29T19:42:43.443Z,61.32
2022-07-29T19:45:51.326Z,61.52
2022-07-29T19:48:59.158Z,61.42
2022-07-29T19:52:06.557Z,61.22
2022-07-29T19:55:14.779Z,61.75
2022-07-29T19:58:22.511Z,61.45
2022-07-29T20:01:25.184Z,61.95
2022-07-29T20:04:34.066Z,61.45
2022-07-29T20:07:42.485Z,59.95
2022-07-29T20:10:50.988Z,60.25
2022-07-29T20:13:59.425Z,60.98
2022-07-29T20:17:07.083Z,61.88
2022-07-29T20:20:15.763Z,61.98
2022-07-29T20:23:23.744Z,62.18
2022-07-29T20:26:31.590Z,62.28
2022-07-29T20:29:39.664Z,61.78
2022-07-29T20:32:46.934Z,60.58
2022-07-29T20:35:55.113Z,60.18
2022-07-29T20:39:03.401Z,60.08
2022-07-29T20:42:10.702Z,60.88
2022-07-29T20:45:18.892Z,60.08
2022-07-29T20:48:26.977Z,60.38
2022-07-29T20:51:43.710Z,59.58
2022-07-29T20:54:39.781Z,59.38
2022-07-29T20:57:47.561Z,59.48
2022-07-29T21:00:55.473Z,58.68
2022-07-29T21:04:03.730Z,58.98
2022-07-29T21:07:11.179Z,59.18
2022-07-29T21:10:18.847Z,58.58
2022-07-29T21:13:27.137Z,59.08
2022-07-29T21:16:34.519Z,58.18
2022-07-29T21:19:42.651Z,59.48
2022-07-29T21:22:50.596Z,59.78
2022-07-29T21:25:58.394Z,59.18
2022-07-29T21:29:06.713Z,59.18
2022-07-29T21:32:14.800Z,58.98
2022-07-29T21:36:01.848Z,59.78
2022-07-29T21:38:26.306Z,59.81
2022-07-29T21:41:34.423Z,59.00
2022-07-29T21:44:42.458Z,59.41
2022-07-29T21:47:50.287Z,59.31
2022-07-29T21:50:58.747Z,59.48
2022-07-29T21:54:07.844Z,59.41
2022-07-29T21:57:16.123Z,59.50
2022-07-29T22:00:24.331Z,60.51
2022-07-29T22:03:32.427Z,59.94
2022-07-29T22:06:40.115Z,59.81
2022-07-29T22:09:48.677Z,59.50
2022-07-29T22:12:56.387Z,59.31
2022-07-29T22:16:04.899Z,57.80
2022-07-29T22:19:13.293Z,56.07
2022-07-29T22:22:20.961Z,55.85
2022-07-29T22:25:29.511Z,55.35
2022-07-29T22:28:38.090Z,55.42
2022-07-29T22:31:45.854Z,55.22
2022-07-29T22:34:53.835Z,55.42
2022-07-29T22:38:02.166Z,55.72
2022-07-29T22:41:11.557Z,57.62
2022-07-29T22:44:12.938Z,57.32
2022-07-29T22:47:46.183Z,57.02
2022-07-29T22:50:26.290Z,57.15
2022-07-29T22:53:34.331Z,57.65
2022-07-29T22:56:42.202Z,58.45
2022-07-29T22:59:50.634Z,59.35
2022-07-29T23:02:58.936Z,60.28
2022-07-29T23:06:06.953Z,60.78
2022-07-29T23:09:15.367Z,61.18
2022-07-29T23:12:22.907Z,61.48
2022-07-29T23:15:31.606Z,61.88
2022-07-29T23:18:40.331Z,62.31
2022-07-29T23:21:48.022Z,62.71
2022-07-29T23:24:56.651Z,62.92
2022-07-29T23:28:05.264Z,63.51
2022-07-29T23:31:13.040Z,64.04
2022-07-29T23:34:21.553Z,64.25
2022-07-29T23:37:29.527Z,64.54
2022-07-29T23:40:37.238Z,64.95
2022-07-29T23:43:45.380Z,65.35
2022-07-29T23:46:53.169Z,65.95
2022-07-29T23:50:01.226Z,67.15
2022-07-29T23:53:09.614Z,73.10
2022-07-29T23:56:17.563Z,75.48
2022-07-29T23:59:25.536Z,78.73
